Skip Navigation LinksHome page > Weather > Current weather Skip Navigation Links

Current Weather

Lee'S Summit Municipal, Lee'S Summit, Mo.

For information only: do not use for flight planning or navigation.
Latest weather
Observation time Monday, November 29, 2021 2:53 PM CST
Local time Monday, November 29, 2021 3:24 PM CST
Flight conditions Visual Meteorological Conditions
Winds
Wind direction West-Southwest (240°)
Wind speed 13 mph
Visibility 10 mi.
Sky condition
Ceiling unlimited
Sky clear
Temperature 63°F
Dewpoint 37°F
Altimeter 29.88 in.Hg
Pressure change last 3 hours0.05 in.Hg
Pressure falling more slowly
Derived measurements
Relative humidity 38%
Density altitude 1423 ft.
Sea-level pressure 29.88 in.Hg
Remarks
Fully automated report.
System requires maintenance.
Automated weather observing station with precipitation discriminator.
METAR KLXT 292053Z AUTO 24011KT 10SM CLR 17/03 A2988 RMK AO2 SLP119 T01720028 56017 $

Settings

Location code

InnerDrive.Weather 4.0.6770.0 Release CLR 4.0.30319.42000
Copyright ©2018 Inner Drive Technology. All rights reserved. Portions Copyright ©1986-2018 David Braverman.

Find weather

Site navigation


Skip Navigation Links

Place info

Page info

PayPal - The safer, easier way to pay online!

Return home.

Copyright ©2021 Inner Drive Technology. Purveyors of fine, hand-crafted computer software. Page printed 2021-11-29T21:24:06 UTC.